Time;durP1;ratioP1;P1;durP2;ratioP2;P2;SDS_P1;SDS_P2;PMS_P1;PMS_P2;Temp;Humidity;BMP_temperature;BMP_pressure;BME280_temperature;BME280_humidity;BME280_pressure;Samples;Min_cycle;Max_cycle;Signal;HPM_P1;HPM_P2
2023/08/01 00:00:53;;;;;;;;;;;;;;;21.22;67.26;98882.81;4947120;28;7042;-86
2023/08/01 00:03:18;;;;;;;;;;;;;;;21.21;67.49;98896.75;4946962;28;7179;-86
2023/08/01 00:05:45;;;;;;;;;;;;;;;21.19;67.75;98902.88;4975812;28;7017;-85
2023/08/01 00:08:12;;;;;;;;;;;;;;;21.19;67.92;98919.38;4926329;28;8374;-86
2023/08/01 00:10:38;;;;;;;;;;;;;;;21.19;67.79;98919.38;4942587;28;8733;-85
2023/08/01 00:13:04;;;;;;;;;;;;;;;21.18;67.27;98894.22;4932198;28;7186;-86
2023/08/01 00:15:29;;;;;;;;;;;;;;;21.21;67.91;98877.66;4926567;28;8426;-86
2023/08/01 00:17:54;;;;;;;;;;;;;;;21.20;67.76;98910.66;4930421;28;8584;-85
2023/08/01 00:20:20;;;;;;;;;;;;;;;21.22;67.95;98911.47;4945677;28;6943;-85
2023/08/01 00:22:45;;;;;;;;;;;;;;;21.25;68.12;98913.19;4943335;28;6990;-85
2023/08/01 00:25:11;;;;;;;;;;;;;;;21.25;67.71;98907.13;4927017;28;7166;-86
2023/08/01 00:27:37;;;;;;;;;;;;;;;21.25;67.41;98901.91;4928229;28;8406;-83
2023/08/01 00:30:02;;;;;;;;;;;;;;;21.26;67.79;98908.84;4975397;28;8452;-83
2023/08/01 00:32:28;;;;;;;;;;;;;;;21.23;67.41;98909.75;4928106;28;8708;-82
2023/08/01 00:34:53;;;;;;;;;;;;;;;21.21;67.55;98896.75;4938904;28;7109;-86
2023/08/01 00:37:19;;;;;;;;;;;;;;;21.20;67.75;98891.59;4926208;28;7497;-85
2023/08/01 00:39:44;;;;;;;;;;;;;;;21.15;67.13;98890.81;4930230;28;8378;-85
2023/08/01 00:42:10;;;;;;;;;;;;;;;21.12;67.61;98894.31;4924815;28;8387;-86
2023/08/01 00:44:36;;;;;;;;;;;;;;;21.08;67.65;98879.66;4946638;28;6792;-85
2023/08/01 00:47:02;;;;;;;;;;;;;;;21.05;67.37;98882.28;4977055;28;8222;-86
2023/08/01 00:49:27;;;;;;;;;;;;;;;21.06;67.70;98886.66;4924309;28;8429;-87
2023/08/01 00:51:52;;;;;;;;;;;;;;;21.02;67.58;98890.19;4947009;28;6886;-90
2023/08/01 00:54:18;;;;;;;;;;;;;;;21.00;67.54;98884.16;4930747;28;8449;-90
2023/08/01 00:56:44;;;;;;;;;;;;;;;21.00;67.69;98881.53;4947583;28;6957;-90
2023/08/01 00:59:11;;;;;;;;;;;;;;;20.99;67.56;98885.03;4945439;28;8475;-89
2023/08/01 01:01:37;;;;;;;;;;;;;;;20.98;67.44;98878.97;4932326;28;8511;-90
2023/08/01 01:04:03;;;;;;;;;;;;;;;20.98;67.67;98884.16;4929255;28;7162;-88
2023/08/01 01:06:45;;;;;;;;;;;;;;;20.98;67.59;98883.31;4947783;28;7030;-89
2023/08/01 01:09:18;;;;;;;;;;;;;;;20.94;67.70;98888.56;4939520;28;6860;-89
2023/08/01 01:11:44;;;;;;;;;;;;;;;20.93;67.40;98868.63;4926547;28;7392;-88
2023/08/01 01:14:09;;;;;;;;;;;;;;;20.91;67.77;98846.97;4925180;28;7062;-89
2023/08/01 01:16:35;;;;;;;;;;;;;;;20.89;67.73;98833.13;4931866;28;8395;-89
2023/08/01 01:19:00;;;;;;;;;;;;;;;20.87;67.55;98847.06;4933464;28;7049;-89
2023/08/01 01:21:26;;;;;;;;;;;;;;;20.85;67.62;98852.28;4961987;28;7193;-90
2023/08/01 01:23:52;;;;;;;;;;;;;;;20.84;67.41;98855.78;4931066;28;8444;-90
2023/08/01 01:26:21;;;;;;;;;;;;;;;20.79;67.63;98863.66;4930753;28;8879;-89
2023/08/01 01:28:51;;;;;;;;;;;;;;;20.77;67.61;98880.19;4932857;28;7157;-89
2023/08/01 01:31:17;;;;;;;;;;;;;;;20.74;67.67;98870.69;4948077;28;7322;-88
2023/08/01 01:33:43;;;;;;;;;;;;;;;20.75;67.30;98871.53;4935930;28;6958;-91
2023/08/01 01:36:08;;;;;;;;;;;;;;;20.72;67.40;98858.59;4929128;28;6987;-90
2023/08/01 01:38:34;;;;;;;;;;;;;;;20.74;67.60;98865.50;4961871;28;7037;-91
2023/08/01 01:40:59;;;;;;;;;;;;;;;20.72;67.29;98856.84;4931704;28;7154;-90
2023/08/01 01:43:27;;;;;;;;;;;;;;;20.68;67.47;98844.78;4966526;28;7046;-89
2023/08/01 01:45:53;;;;;;;;;;;;;;;20.68;67.40;98853.44;4933434;28;6835;-90
2023/08/01 01:48:18;;;;;;;;;;;;;;;20.67;67.45;98858.66;4947411;28;6965;-89
2023/08/01 01:50:44;;;;;;;;;;;;;;;20.66;67.34;98857.81;4946406;28;6947;-91
2023/08/01 01:53:09;;;;;;;;;;;;;;;20.64;67.18;98858.75;4938761;28;6971;-92
2023/08/01 01:55:35;;;;;;;;;;;;;;;20.61;67.41;98864.84;4946549;28;7382;-90
2023/08/01 01:58:00;;;;;;;;;;;;;;;20.60;67.04;98867.47;4950311;28;6831;-92
2023/08/01 02:00:26;;;;;;;;;;;;;;;20.58;66.89;98864.03;4977140;28;7449;-87
2023/08/01 02:02:51;;;;;;;;;;;;;;;20.56;67.13;98856.25;4963449;28;7103;-90
2023/08/01 02:05:17;;;;;;;;;;;;;;;20.57;67.25;98846.72;4949497;28;7159;-91
2023/08/01 02:07:42;;;;;;;;;;;;;;;20.53;66.94;98848.50;4943847;28;6983;-90
2023/08/01 02:10:08;;;;;;;;;;;;;;;20.50;66.66;98849.41;4944636;28;7015;-90
2023/08/01 02:12:35;;;;;;;;;;;;;;;20.47;67.60;98851.22;4962503;28;7656;-91
2023/08/01 02:15:01;;;;;;;;;;;;;;;20.45;67.11;98848.66;4935442;28;7211;-91
2023/08/01 02:17:26;;;;;;;;;;;;;;;20.45;67.50;98858.19;4933288;28;7110;-91
2023/08/01 02:19:52;;;;;;;;;;;;;;;20.43;67.17;98863.44;4949533;28;6951;-90
2023/08/01 02:22:17;;;;;;;;;;;;;;;20.42;66.67;98853.03;4933433;28;6963;-90
2023/08/01 02:24:43;;;;;;;;;;;;;;;20.39;67.17;98854.81;4954360;28;6840;-91
2023/08/01 02:27:08;;;;;;;;;;;;;;;20.38;66.88;98860.91;4989846;28;6980;-89
2023/08/01 02:29:35;;;;;;;;;;;;;;;20.32;66.76;98862.72;4950792;28;6968;-91
2023/08/01 02:32:01;;;;;;;;;;;;;;;20.34;67.09;98866.19;4948104;28;6992;-92
2023/08/01 02:34:27;;;;;;;;;;;;;;;20.28;66.74;98861.97;4933447;28;7197;-88
2023/08/01 02:36:53;;;;;;;;;;;;;;;20.29;66.98;98873.19;4953346;28;7059;-89
2023/08/01 02:39:18;;;;;;;;;;;;;;;20.25;67.00;98885.41;4939263;28;7193;-91
2023/08/01 02:41:44;;;;;;;;;;;;;;;20.21;67.09;98891.53;4937677;28;7279;-91
2023/08/01 02:44:09;;;;;;;;;;;;;;;20.20;66.83;98890.66;4933115;28;6973;-90
2023/08/01 02:46:35;;;;;;;;;;;;;;;20.15;66.62;98892.50;4935346;28;6975;-91
2023/08/01 02:49:00;;;;;;;;;;;;;;;20.12;67.08;98893.41;4938503;28;6964;-87
2023/08/01 02:51:26;;;;;;;;;;;;;;;20.09;66.87;98897.78;4948347;28;6986;-87
2023/08/01 02:53:53;;;;;;;;;;;;;;;20.08;67.06;98902.09;4930285;28;7232;-88
2023/08/01 02:56:18;;;;;;;;;;;;;;;20.06;67.21;98885.69;4945818;28;7535;-88
2023/08/01 02:58:44;;;;;;;;;;;;;;;20.05;66.94;98893.53;4930800;28;6836;-88
2023/08/01 03:01:10;;;;;;;;;;;;;;;20.03;67.28;98903.94;4932098;28;6982;-87
2023/08/01 03:03:36;;;;;;;;;;;;;;;20.01;66.78;98913.50;4951190;28;7253;-86
2023/08/01 03:06:02;;;;;;;;;;;;;;;19.98;66.86;98906.59;4933678;28;7015;-86
2023/08/01 03:08:27;;;;;;;;;;;;;;;19.96;66.42;98918.78;4933584;28;7151;-86
2023/08/01 03:10:54;;;;;;;;;;;;;;;19.93;66.78;98923.13;4950365;28;6933;-87
2023/08/01 03:13:20;;;;;;;;;;;;;;;19.90;66.81;98923.19;4931094;28;6977;-86
2023/08/01 03:15:45;;;;;;;;;;;;;;;19.84;66.85;98919.75;4926196;28;7186;-86
2023/08/01 03:18:11;;;;;;;;;;;;;;;19.83;66.86;98923.25;4966789;28;6941;-86
2023/08/01 03:20:39;;;;;;;;;;;;;;;19.80;66.68;98932.81;4930822;28;7193;-86
2023/08/01 03:23:04;;;;;;;;;;;;;;;19.78;66.94;98926.78;4929988;28;7070;-87
2023/08/01 03:25:42;;;;;;;;;;;;;;;19.75;66.73;98925.09;4965624;28;6972;-86
2023/08/01 03:28:09;;;;;;;;;;;;;;;19.71;66.12;98931.22;4966284;28;6837;-86
2023/08/01 03:30:37;;;;;;;;;;;;;;;19.70;66.36;98935.53;4933248;28;7024;-87
2023/08/01 03:33:03;;;;;;;;;;;;;;;19.66;66.88;98925.19;4946904;28;6982;-87
2023/08/01 03:35:29;;;;;;;;;;;;;;;19.63;66.56;98928.69;4941994;28;7257;-87
2023/08/01 03:37:54;;;;;;;;;;;;;;;19.57;66.25;98921.84;4946116;28;6993;-86
2023/08/01 03:40:20;;;;;;;;;;;;;;;19.58;66.52;98933.09;4960161;28;6963;-78
2023/08/01 03:42:46;;;;;;;;;;;;;;;19.55;66.64;98928.81;4944091;28;6953;-81
2023/08/01 03:45:12;;;;;;;;;;;;;;;19.51;66.58;98931.47;4950202;28;6820;-83
2023/08/01 03:47:37;;;;;;;;;;;;;;;19.50;66.60;98934.94;4922122;28;7370;-83
2023/08/01 03:50:03;;;;;;;;;;;;;;;19.44;66.71;98928.06;4944946;28;7454;-83
2023/08/01 03:52:28;;;;;;;;;;;;;;;19.42;66.57;98940.22;4937796;28;6995;-83
2023/08/01 03:54:55;;;;;;;;;;;;;;;19.39;66.85;98942.84;4944248;28;7378;-83
2023/08/01 03:57:21;;;;;;;;;;;;;;;19.37;66.47;98936.81;4945307;28;8837;-83
2023/08/01 03:59:46;;;;;;;;;;;;;;;19.34;66.47;98947.25;4921866;28;8492;-83
2023/08/01 04:02:12;;;;;;;;;;;;;;;19.27;66.62;98938.66;4941478;28;8444;-84
2023/08/01 04:05:10;;;;;;;;;;;;;;;19.26;66.36;98939.53;4963199;28;6948;-86
2023/08/01 04:07:45;;;;;;;;;;;;;;;19.21;66.74;98943.91;4957916;28;6939;-86
2023/08/01 04:10:13;;;;;;;;;;;;;;;19.20;66.91;98948.25;4932575;28;6968;-84
2023/08/01 04:12:38;;;;;;;;;;;;;;;19.20;66.82;98939.59;4936053;28;7010;-84
2023/08/01 04:15:04;;;;;;;;;;;;;;;19.18;67.01;98944.81;4944726;28;7159;-84
2023/08/01 04:17:48;;;;;;;;;;;;;;;;;;;;;
2023/08/01 04:20:24;;;;;;;;;;;;;;;19.18;66.87;98937.00;4942488;28;6919;-86
2023/08/01 04:22:55;;;;;;;;;;;;;;;19.18;66.62;98943.97;4935565;28;6849;-86
2023/08/01 04:25:29;;;;;;;;;;;;;;;19.22;66.71;98961.22;4943560;28;6989;-88
2023/08/01 04:28:08;;;;;;;;;;;;;;;19.21;67.02;98960.34;4931430;28;7076;-86
2023/08/01 04:31:01;;;;;;;;;;;;;;;19.23;66.61;98953.41;4952841;28;6936;-85
2023/08/01 04:33:38;;;;;;;;;;;;;;;19.24;67.06;98936.97;4947508;28;7096;-85
2023/08/01 04:36:03;;;;;;;;;;;;;;;19.23;66.93;98929.19;4932325;28;6848;-86
2023/08/01 04:38:50;;;;;;;;;;;;;;;19.24;66.92;98928.28;4929692;28;6976;-87
2023/08/01 04:41:44;;;;;;;;;;;;;;;19.21;66.52;98913.59;4931999;28;6805;-85
2023/08/01 04:44:37;;;;;;;;;;;;;;;;;;;;;
2023/08/01 04:47:20;;;;;;;;;;;;;;;19.17;66.90;98930.09;4951302;28;6848;-87
2023/08/01 04:49:56;;;;;;;;;;;;;;;19.18;67.47;98947.41;4950746;28;6837;-87
2023/08/01 04:52:21;;;;;;;;;;;;;;;19.20;67.20;98943.03;4952986;28;6991;-88
2023/08/01 04:54:49;;;;;;;;;;;;;;;19.22;67.07;98945.63;4947684;28;6975;-87
2023/08/01 04:57:15;;;;;;;;;;;;;;;19.20;66.59;98950.00;4948406;28;6988;-85
2023/08/01 04:59:41;;;;;;;;;;;;;;;19.17;66.36;98950.00;4919058;28;7166;-86
2023/08/01 05:02:09;;;;;;;;;;;;;;;19.18;66.93;98950.00;4934253;28;7182;-85
2023/08/01 05:04:35;;;;;;;;;;;;;;;19.24;66.96;98955.13;4930863;28;7044;-84
2023/08/01 05:07:11;;;;;;;;;;;;;;;19.31;67.27;98960.25;4946665;28;6966;-86
2023/08/01 05:09:39;;;;;;;;;;;;;;;19.34;66.90;98955.03;4959179;28;6894;-89
2023/08/01 05:12:09;;;;;;;;;;;;;;;19.38;67.61;98956.72;4965463;28;6971;-91
2023/08/01 05:15:03;;;;;;;;;;;;;;;19.41;67.29;98954.06;4936926;28;6918;-91
2023/08/01 05:17:29;;;;;;;;;;;;;;;19.50;67.09;98960.91;4933167;28;6981;-91
2023/08/01 05:19:57;;;;;;;;;;;;;;;19.53;67.19;98956.53;4945856;28;6830;-91
2023/08/01 05:22:23;;;;;;;;;;;;;;;19.57;67.30;98962.56;4983769;28;6832;-89
2023/08/01 05:24:56;;;;;;;;;;;;;;;19.65;66.93;98965.06;4973188;28;6970;-91
2023/08/01 05:27:24;;;;;;;;;;;;;;;19.69;66.88;98967.59;4937806;28;6855;-92
2023/08/01 05:30:09;;;;;;;;;;;;;;;;;;;;;
2023/08/01 05:32:37;;;;;;;;;;;;;;;19.75;67.27;98966.66;4953429;28;20266;-91
2023/08/01 05:35:06;;;;;;;;;;;;;;;19.79;66.46;98972.69;4954200;28;6842;-92
2023/08/01 05:37:34;;;;;;;;;;;;;;;19.82;67.03;98976.13;4950572;28;6840;-91
2023/08/01 05:39:59;;;;;;;;;;;;;;;19.88;67.25;98977.78;4958936;28;6849;-86
2023/08/01 05:43:01;;;;;;;;;;;;;;;19.96;66.85;98983.78;4943423;28;6816;-91
2023/08/01 05:45:39;;;;;;;;;;;;;;;20.04;67.29;98980.19;4958486;28;6923;-91
2023/08/01 05:48:30;;;;;;;;;;;;;;;20.08;66.85;98976.69;4953313;28;6907;-91
2023/08/01 05:50:55;;;;;;;;;;;;;;;20.07;66.39;98983.59;4978768;23;6856;-71
2023/08/01 05:53:21;;;;;;;;;;;;;;;20.08;66.67;98979.28;4992813;28;10225;-72
2023/08/01 05:55:47;;;;;;;;;;;;;;;20.09;66.68;98984.47;5011317;28;7026;-72
2023/08/01 05:58:13;;;;;;;;;;;;;;;20.14;66.71;98980.94;5009703;28;6779;-72
2023/08/01 06:00:38;;;;;;;;;;;;;;;20.20;66.51;98983.47;4994164;28;7268;-72
2023/08/01 06:03:04;;;;;;;;;;;;;;;20.25;66.36;98982.50;4991125;28;7186;-72
2023/08/01 06:05:29;;;;;;;;;;;;;;;20.26;66.35;98988.56;4996050;28;6788;-72
2023/08/01 06:07:55;;;;;;;;;;;;;;;20.26;66.00;98988.56;4999575;28;7574;-73
2023/08/01 06:10:21;;;;;;;;;;;;;;;20.25;66.20;98986.84;4973506;28;6963;-72
2023/08/01 06:12:47;;;;;;;;;;;;;;;20.26;66.40;98985.94;5002445;28;7085;-76
2023/08/01 06:15:12;;;;;;;;;;;;;;;20.28;66.02;98989.41;4986031;28;7298;-76
2023/08/01 06:17:38;;;;;;;;;;;;;;;20.30;66.16;98995.44;5008692;28;6875;-76
2023/08/01 06:20:04;;;;;;;;;;;;;;;20.31;65.99;98991.09;4990385;28;6796;-72
2023/08/01 06:22:30;;;;;;;;;;;;;;;20.33;65.47;98990.19;4992568;28;7084;-76
2023/08/01 06:24:56;;;;;;;;;;;;;;;20.33;66.09;99000.59;4992032;28;6847;-75
2023/08/01 06:27:21;;;;;;;;;;;;;;;20.35;65.61;98996.22;4993909;28;6863;-75
2023/08/01 06:29:47;;;;;;;;;;;;;;;20.36;65.67;98990.13;4978108;28;7002;-75
2023/08/01 06:32:12;;;;;;;;;;;;;;;20.35;65.88;98993.63;4976648;28;7288;-76
2023/08/01 06:34:38;;;;;;;;;;;;;;;20.37;65.91;98997.06;5004275;28;6803;-74
2023/08/01 06:37:03;;;;;;;;;;;;;;;20.45;66.29;98998.69;4994795;28;6887;-76
2023/08/01 06:39:29;;;;;;;;;;;;;;;20.54;66.47;98996.81;4990059;28;6784;-75
2023/08/01 06:41:55;;;;;;;;;;;;;;;20.66;66.48;98993.16;5006545;28;7657;-75
2023/08/01 06:44:20;;;;;;;;;;;;;;;20.80;66.56;98997.28;4990459;28;7117;-76
2023/08/01 06:46:46;;;;;;;;;;;;;;;20.93;66.44;99001.44;4998574;28;7214;-73
2023/08/01 06:49:11;;;;;;;;;;;;;;;21.04;66.22;99008.19;4991866;28;6856;-76
2023/08/01 06:51:37;;;;;;;;;;;;;;;21.17;65.98;99006.25;4997718;28;6788;-75
2023/08/01 06:54:02;;;;;;;;;;;;;;;21.28;65.77;99004.28;4989064;28;6948;-76
2023/08/01 06:56:28;;;;;;;;;;;;;;;21.35;65.40;99018.09;4985446;28;7493;-76
2023/08/01 06:58:53;;;;;;;;;;;;;;;21.41;65.65;99009.31;4989775;28;7157;-76
2023/08/01 07:01:19;;;;;;;;;;;;;;;21.49;65.05;99010.88;5009763;28;7203;-75
2023/08/01 07:03:45;;;;;;;;;;;;;;;21.57;65.01;99009.88;4991839;28;6805;-74
2023/08/01 07:06:10;;;;;;;;;;;;;;;21.64;64.74;99014.06;4993159;28;6828;-75
2023/08/01 07:08:36;;;;;;;;;;;;;;;21.74;64.57;99014.75;4975777;28;7207;-75
2023/08/01 07:11:02;;;;;;;;;;;;;;;21.78;64.33;99014.66;5008886;28;6775;-76
2023/08/01 07:13:28;;;;;;;;;;;;;;;21.85;63.94;99018.00;4992995;28;6993;-76
2023/08/01 07:15:53;;;;;;;;;;;;;;;21.88;63.67;99023.19;4994045;28;6873;-74
2023/08/01 07:18:19;;;;;;;;;;;;;;;21.86;63.37;99021.50;4987226;28;6976;-75
2023/08/01 07:20:44;;;;;;;;;;;;;;;21.85;63.25;99022.38;4996245;28;7196;-74
2023/08/01 07:23:10;;;;;;;;;;;;;;;21.85;63.22;99028.44;4998947;28;6964;-75
2023/08/01 07:25:35;;;;;;;;;;;;;;;21.92;63.38;99030.03;4978283;28;7704;-75
2023/08/01 07:28:01;;;;;;;;;;;;;;;22.03;64.07;99024.59;4975156;28;6941;-75
2023/08/01 07:30:27;;;;;;;;;;;;;;;22.20;63.86;99029.47;4994286;28;6976;-73
2023/08/01 07:32:52;;;;;;;;;;;;;;;22.39;63.60;99030.78;4998367;28;6800;-73
2023/08/01 07:35:18;;;;;;;;;;;;;;;22.50;62.83;99031.44;4994043;28;6888;-74
2023/08/01 07:37:43;;;;;;;;;;;;;;;22.59;62.59;99026.00;5007572;28;6820;-76
2023/08/01 07:40:09;;;;;;;;;;;;;;;22.63;62.74;99032.00;4988001;28;6784;-75
2023/08/01 07:42:35;;;;;;;;;;;;;;;22.76;62.54;99032.56;4991370;28;7038;-77
2023/08/01 07:45:01;;;;;;;;;;;;;;;22.93;62.48;99031.31;4977694;28;7153;-75
2023/08/01 07:47:26;;;;;;;;;;;;;;;23.02;62.07;99037.16;4982579;28;8421;-76
2023/08/01 07:49:52;;;;;;;;;;;;;;;23.10;61.36;99041.34;4992749;28;8940;-75
2023/08/01 07:52:17;;;;;;;;;;;;;;;23.13;61.47;99041.25;4993422;28;6800;-75
2023/08/01 07:54:43;;;;;;;;;;;;;;;23.19;60.87;99042.88;4988850;28;6797;-77
2023/08/01 07:57:08;;;;;;;;;;;;;;;23.16;59.99;99041.19;4996055;28;6869;-75
2023/08/01 07:59:34;;;;;;;;;;;;;;;23.19;60.47;99054.16;5009591;28;6975;-75
2023/08/01 08:01:59;;;;;;;;;;;;;;;23.19;60.11;99046.31;4991942;28;6937;-75
2023/08/01 08:04:25;;;;;;;;;;;;;;;23.19;59.81;99045.47;4997532;28;6812;-75
2023/08/01 08:06:51;;;;;;;;;;;;;;;23.17;59.75;99043.75;5003565;28;8505;-76
2023/08/01 08:09:17;;;;;;;;;;;;;;;23.19;59.26;99054.16;5000013;28;7243;-76
2023/08/01 08:11:42;;;;;;;;;;;;;;;23.26;59.99;99042.66;5005971;28;6957;-76
2023/08/01 08:14:08;;;;;;;;;;;;;;;23.29;59.42;99044.38;4999503;28;6780;-75
2023/08/01 08:16:34;;;;;;;;;;;;;;;23.26;59.09;99047.00;4991339;28;6836;-74
2023/08/01 08:18:59;;;;;;;;;;;;;;;23.23;59.29;99062.78;5001786;28;6801;-76
2023/08/01 08:21:25;;;;;;;;;;;;;;;23.22;59.07;99058.47;5001088;28;7367;-76
2023/08/01 08:23:50;;;;;;;;;;;;;;;23.20;58.92;99047.19;5015530;28;7063;-76
2023/08/01 08:26:16;;;;;;;;;;;;;;;23.30;59.91;99059.16;5001483;28;6788;-74
2023/08/01 08:28:42;;;;;;;;;;;;;;;23.48;59.49;99057.81;5015441;28;7166;-74
2023/08/01 08:31:08;;;;;;;;;;;;;;;23.64;58.75;99039.94;4996123;28;7393;-74
2023/08/01 08:33:33;;;;;;;;;;;;;;;23.81;59.04;99054.31;5003124;28;6851;-76
2023/08/01 08:35:59;;;;;;;;;;;;;;;23.98;58.72;99051.19;4998470;28;6845;-76
2023/08/01 08:38:24;;;;;;;;;;;;;;;24.09;58.13;99048.31;4999448;28;6958;-75
2023/08/01 08:41:09;;;;;;;;;;;;;;;24.10;56.93;99052.66;4988456;28;6997;-77
2023/08/01 08:43:35;;;;;;;;;;;;;;;24.04;57.08;99047.56;5001831;28;6871;-75
2023/08/01 08:46:03;;;;;;;;;;;;;;;23.97;55.99;99052.09;4996192;28;6795;-75
2023/08/01 08:48:29;;;;;;;;;;;;;;;23.85;55.87;99056.78;4996291;28;6883;-73
2023/08/01 08:50:57;;;;;;;;;;;;;;;23.86;57.37;99068.13;4998866;28;6783;-76
2023/08/01 08:53:23;;;;;;;;;;;;;;;24.17;57.53;99053.31;4998705;28;6807;-76
2023/08/01 08:55:48;;;;;;;;;;;;;;;24.76;57.44;99048.88;4995313;28;6792;-77
2023/08/01 08:58:15;;;;;;;;;;;;;;;25.49;56.53;99042.09;4995585;28;6796;-76
2023/08/01 09:00:42;;;;;;;;;;;;;;;25.89;54.82;99049.47;4990534;28;6827;-76
2023/08/01 09:03:07;;;;;;;;;;;;;;;25.85;54.12;99037.41;4993065;28;6867;-75
2023/08/01 09:06:01;;;;;;;;;;;;;;;26.12;54.38;99053.88;4995454;28;7501;-75
2023/08/01 09:08:29;;;;;;;;;;;;;;;26.65;53.59;99054.47;4978984;28;7275;-75
2023/08/01 09:10:55;;;;;;;;;;;;;;;27.24;53.29;99043.38;5009763;28;6804;-76
2023/08/01 09:13:21;;;;;;;;;;;;;;;27.77;51.75;99035.88;4995393;28;7090;-75
2023/08/01 09:15:47;;;;;;;;;;;;;;;28.29;50.89;99037.88;4990212;28;6930;-73
2023/08/01 09:18:13;;;;;;;;;;;;;;;28.89;50.03;99036.78;4986764;28;7353;-73
2023/08/01 09:20:49;;;;;;;;;;;;;;;29.32;48.44;99038.16;4990099;28;6871;-77
2023/08/01 09:23:16;;;;;;;;;;;;;;;29.39;46.64;99036.91;4996264;28;7224;-74
2023/08/01 09:25:42;;;;;;;;;;;;;;;29.42;46.92;99033.28;4995616;28;7023;-76
2023/08/01 09:28:18;;;;;;;;;;;;;;;29.25;46.53;99043.75;4995453;28;7034;-74
2023/08/01 09:30:54;;;;;;;;;;;;;;;28.91;46.15;99041.97;4984434;28;7056;-73
2023/08/01 09:33:19;;;;;;;;;;;;;;;28.83;46.20;99045.00;4985088;28;7546;-74
2023/08/01 09:35:45;;;;;;;;;;;;;;;28.82;46.31;99049.41;4976111;28;7386;-75
2023/08/01 09:38:15;;;;;;;;;;;;;;;29.03;46.40;99049.28;4997519;28;6803;-75
2023/08/01 09:40:42;;;;;;;;;;;;;;;29.47;46.13;99044.47;4997578;28;6796;-77
2023/08/01 09:43:09;;;;;;;;;;;;;;;29.71;44.62;99041.47;4989888;28;6807;-76
2023/08/01 09:45:34;;;;;;;;;;;;;;;29.96;44.97;99048.91;4999337;28;9897;-75
2023/08/01 09:48:01;;;;;;;;;;;;;;;30.40;44.64;99041.28;5004556;28;6935;-76
2023/08/01 09:50:26;;;;;;;;;;;;;;;30.99;43.12;99037.94;4994743;28;9705;-74
2023/08/01 09:52:52;;;;;;;;;;;;;;;31.55;42.02;99043.47;5000156;28;6974;-73
2023/08/01 09:55:32;;;;;;;;;;;;;;;31.99;40.84;99041.69;4996826;28;6999;-71
2023/08/01 09:57:59;;;;;;;;;;;;;;;32.23;39.96;99045.53;4995926;28;6807;-75
2023/08/01 10:00:29;;;;;;;;;;;;;;;32.18;39.06;99047.59;4993894;28;8485;-74
2023/08/01 10:03:00;;;;;;;;;;;;;;;32.21;38.33;99037.66;4997024;28;6804;-76
2023/08/01 10:05:31;;;;;;;;;;;;;;;32.29;38.01;99039.81;5003597;28;6807;-74
2023/08/01 10:07:59;;;;;;;;;;;;;;;32.31;37.60;99037.06;4984887;28;7027;-74
2023/08/01 10:10:25;;;;;;;;;;;;;;;32.17;37.45;99036.16;4998010;28;6815;-73
2023/08/01 10:12:51;;;;;;;;;;;;;;;31.91;37.21;99051.91;5005929;28;6963;-73
2023/08/01 10:15:17;;;;;;;;;;;;;;;31.61;37.30;99052.84;5000612;28;6799;-73
2023/08/01 10:17:44;;;;;;;;;;;;;;;30.99;38.05;99054.69;4994239;28;6787;-73
2023/08/01 10:20:12;;;;;;;;;;;;;;;30.31;38.48;99047.94;4996553;28;6792;-76
2023/08/01 10:22:39;;;;;;;;;;;;;;;30.19;38.79;99045.06;4977454;28;6971;-76
2023/08/01 10:25:05;;;;;;;;;;;;;;;30.47;39.00;99045.28;4992134;28;6855;-75
2023/08/01 10:27:31;;;;;;;;;;;;;;;30.84;38.14;99053.78;4992593;28;6971;-75
2023/08/01 10:30:01;;;;;;;;;;;;;;;31.11;37.48;99042.53;5005215;28;7051;-76
2023/08/01 10:32:32;;;;;;;;;;;;;;;31.04;37.17;99051.78;4979960;28;6893;-76
2023/08/01 10:34:58;;;;;;;;;;;;;;;30.88;37.60;99049.19;4991049;28;7157;-75
2023/08/01 10:37:23;;;;;;;;;;;;;;;30.96;37.96;99049.59;4989973;28;7240;-76
2023/08/01 10:39:59;;;;;;;;;;;;;;;31.44;37.88;99038.81;4990790;28;6792;-75
2023/08/01 10:42:36;;;;;;;;;;;;;;;31.99;36.79;99033.75;4973329;28;7002;-72
2023/08/01 10:45:02;;;;;;;;;;;;;;;32.46;36.14;99036.13;4997323;28;7058;-73
2023/08/01 10:47:27;;;;;;;;;;;;;;;32.82;35.80;99039.91;4991867;28;6843;-73
2023/08/01 10:49:53;;;;;;;;;;;;;;;32.82;35.35;99033.78;5006807;28;6775;-73
2023/08/01 10:52:24;;;;;;;;;;;;;;;32.62;35.47;99043.06;4994213;28;6783;-72
2023/08/01 10:55:03;;;;;;;;;;;;;;;32.68;35.03;99045.31;4998395;28;6803;-73
2023/08/01 10:57:30;;;;;;;;;;;;;;;33.00;34.99;99042.31;5010887;28;6958;-73
2023/08/01 10:59:57;;;;;;;;;;;;;;;33.47;34.92;99041.88;4982281;28;6990;-74
2023/08/01 11:02:25;;;;;;;;;;;;;;;33.84;34.42;99049.91;4991705;28;6824;-74
2023/08/01 11:05:00;;;;;;;;;;;;;;;33.94;32.46;99050.09;4980357;28;7026;-72
2023/08/01 11:07:26;;;;;;;;;;;;;;;33.27;32.56;99046.72;4999476;28;6811;-72
2023/08/01 11:10:08;;;;;;;;;;;;;;;32.28;33.06;99062.81;4991614;28;6792;-73
2023/08/01 11:12:39;;;;;;;;;;;;;;;32.06;33.55;99065.97;4994144;28;6876;-73
2023/08/01 11:15:07;;;;;;;;;;;;;;;31.81;33.79;99071.97;4995657;28;6824;-72
2023/08/01 11:17:33;;;;;;;;;;;;;;;31.20;34.03;99077.34;4989595;28;7104;-73
2023/08/01 11:20:08;;;;;;;;;;;;;;;30.38;34.49;99074.88;4980653;28;7124;-73
2023/08/01 11:22:34;;;;;;;;;;;;;;;29.87;36.18;99079.28;4991643;28;6819;-72
2023/08/01 11:25:00;;;;;;;;;;;;;;;30.13;36.40;99087.66;4970385;28;7249;-73
2023/08/01 11:27:26;;;;;;;;;;;;;;;30.57;36.38;99080.00;4990889;28;7217;-72
2023/08/01 11:29:53;;;;;;;;;;;;;;;31.11;35.71;99079.56;4992763;28;7249;-73
2023/08/01 11:32:20;;;;;;;;;;;;;;;31.17;35.19;99073.06;4990053;28;7186;-72
2023/08/01 11:34:46;;;;;;;;;;;;;;;30.70;35.06;99082.81;4990452;28;7344;-73
2023/08/01 11:37:13;;;;;;;;;;;;;;;30.01;35.29;99078.56;4992099;28;6800;-73
2023/08/01 11:39:39;;;;;;;;;;;;;;;29.40;35.89;99083.47;4986386;28;7005;-72
2023/08/01 11:42:05;;;;;;;;;;;;;;;28.91;37.14;99084.16;4994811;28;7205;-72
2023/08/01 11:44:30;;;;;;;;;;;;;;;28.58;37.61;99083.03;4994269;28;6812;-73
2023/08/01 11:46:56;;;;;;;;;;;;;;;28.27;38.30;99081.88;4996286;28;6792;-71
2023/08/01 11:49:22;;;;;;;;;;;;;;;28.10;38.95;99086.13;5008486;28;6858;-73
2023/08/01 11:51:48;;;;;;;;;;;;;;;28.24;39.25;99088.13;4991086;28;6803;-74
2023/08/01 11:54:15;;;;;;;;;;;;;;;28.22;38.82;99086.50;4984011;28;6839;-74
2023/08/01 11:56:42;;;;;;;;;;;;;;;27.94;39.43;99101.72;4994032;28;6831;-74
2023/08/01 11:59:13;;;;;;;;;;;;;;;27.68;39.37;99095.00;5001005;28;7110;-74
2023/08/01 12:01:40;;;;;;;;;;;;;;;27.52;39.52;99108.78;4991022;28;6815;-74
2023/08/01 12:04:06;;;;;;;;;;;;;;;27.44;40.34;99108.28;4986723;28;6935;-71
2023/08/01 12:06:32;;;;;;;;;;;;;;;27.41;40.72;99106.63;4983467;28;6995;-72
2023/08/01 12:09:10;;;;;;;;;;;;;;;27.50;41.24;99105.38;4995742;28;6784;-71
2023/08/01 12:11:36;;;;;;;;;;;;;;;27.69;40.99;99109.88;5018281;28;6807;-72
2023/08/01 12:14:15;;;;;;;;;;;;;;;27.82;41.11;99103.16;5009008;28;6792;-72
2023/08/01 12:16:44;;;;;;;;;;;;;;;27.86;40.98;99102.09;4989023;28;6887;-71
2023/08/01 12:19:10;;;;;;;;;;;;;;;27.97;40.34;99096.34;4975389;28;7178;-71
2023/08/01 12:21:37;;;;;;;;;;;;;;;28.22;41.01;99104.94;4992893;28;6859;-71
2023/08/01 12:24:03;;;;;;;;;;;;;;;28.71;41.11;99101.75;4981733;28;6835;-72
2023/08/01 12:26:28;;;;;;;;;;;;;;;29.20;39.74;99100.31;4996351;28;7426;-71
2023/08/01 12:28:54;;;;;;;;;;;;;;;29.49;39.18;99106.78;4992097;28;6788;-71
2023/08/01 12:31:22;;;;;;;;;;;;;;;29.85;39.60;99089.09;5000033;28;7506;-74
2023/08/01 12:33:48;;;;;;;;;;;;;;;30.17;38.50;99094.44;4993008;28;7026;-75
2023/08/01 12:36:14;;;;;;;;;;;;;;;30.26;37.74;99090.47;4987921;28;6835;-71
2023/08/01 12:38:39;;;;;;;;;;;;;;;30.22;37.74;99096.84;5002872;28;6803;-72
2023/08/01 12:41:05;;;;;;;;;;;;;;;30.06;37.97;99102.97;4994709;28;7090;-72
2023/08/01 12:43:31;;;;;;;;;;;;;;;29.72;37.50;99096.81;5000790;28;6823;-73
2023/08/01 12:45:58;;;;;;;;;;;;;;;29.34;37.69;99102.25;4993545;28;6788;-72
2023/08/01 12:48:24;;;;;;;;;;;;;;;28.93;38.49;99106.88;4995101;28;6908;-72
2023/08/01 12:50:49;;;;;;;;;;;;;;;28.50;38.58;99108.94;4991729;28;6990;-76
2023/08/01 12:53:15;;;;;;;;;;;;;;;28.16;38.66;99121.84;5012182;28;6796;-74
2023/08/01 12:55:47;;;;;;;;;;;;;;;28.08;39.45;99108.19;4998265;28;6803;-76
2023/08/01 12:58:13;;;;;;;;;;;;;;;28.56;40.18;99108.63;5012271;28;6824;-74
2023/08/01 13:00:40;;;;;;;;;;;;;;;29.29;38.95;99101.66;4994991;28;6858;-77
2023/08/01 13:03:06;;;;;;;;;;;;;;;30.00;38.18;99113.84;4988188;28;6999;-74